sensor_id;sensor_type;location;lat;lon;timestamp;P1;durP1;ratioP1;P2;durP2;ratioP2
8439;SDS011;4257;48.568;7.818;2023-07-02T00:02:05;1.10;;;0.77;;
8439;SDS011;4257;48.568;7.818;2023-07-02T00:04:31;1.10;;;0.57;;
8439;SDS011;4257;48.568;7.818;2023-07-02T00:06:58;0.55;;;0.50;;
8439;SDS011;4257;48.568;7.818;2023-07-02T00:09:24;1.33;;;0.50;;
8439;SDS011;4257;48.568;7.818;2023-07-02T00:11:51;0.90;;;0.40;;
8439;SDS011;4257;48.568;7.818;2023-07-02T00:14:17;1.35;;;0.35;;
8439;SDS011;4257;48.568;7.818;2023-07-02T00:16:44;0.70;;;0.30;;
8439;SDS011;4257;48.568;7.818;2023-07-02T00:19:13;2.45;;;0.30;;
8439;SDS011;4257;48.568;7.818;2023-07-02T00:21:40;0.52;;;0.40;;
8439;SDS011;4257;48.568;7.818;2023-07-02T00:24:07;0.43;;;0.40;;
8439;SDS011;4257;48.568;7.818;2023-07-02T00:26:34;1.58;;;0.50;;
8439;SDS011;4257;48.568;7.818;2023-07-02T00:29:01;1.83;;;0.40;;
8439;SDS011;4257;48.568;7.818;2023-07-02T00:31:29;1.20;;;0.50;;
8439;SDS011;4257;48.568;7.818;2023-07-02T00:33:55;1.20;;;0.90;;
8439;SDS011;4257;48.568;7.818;2023-07-02T00:36:23;1.20;;;0.63;;
8439;SDS011;4257;48.568;7.818;2023-07-02T00:38:50;0.52;;;0.25;;
8439;SDS011;4257;48.568;7.818;2023-07-02T00:41:16;0.95;;;0.60;;
8439;SDS011;4257;48.568;7.818;2023-07-02T00:43:43;1.85;;;0.60;;
8439;SDS011;4257;48.568;7.818;2023-07-02T00:46:10;0.47;;;0.30;;
8439;SDS011;4257;48.568;7.818;2023-07-02T00:48:38;1.30;;;0.50;;
8439;SDS011;4257;48.568;7.818;2023-07-02T00:51:05;0.95;;;0.30;;
8439;SDS011;4257;48.568;7.818;2023-07-02T00:53:33;0.40;;;0.38;;
8439;SDS011;4257;48.568;7.818;2023-07-02T00:55:59;0.60;;;0.50;;
8439;SDS011;4257;48.568;7.818;2023-07-02T00:58:25;0.75;;;0.65;;
8439;SDS011;4257;48.568;7.818;2023-07-02T01:00:52;1.13;;;0.60;;
8439;SDS011;4257;48.568;7.818;2023-07-02T01:03:21;1.98;;;0.38;;
8439;SDS011;4257;48.568;7.818;2023-07-02T01:05:48;0.55;;;0.50;;
8439;SDS011;4257;48.568;7.818;2023-07-02T01:08:14;1.30;;;0.30;;
8439;SDS011;4257;48.568;7.818;2023-07-02T01:10:42;1.75;;;0.45;;
8439;SDS011;4257;48.568;7.818;2023-07-02T01:13:09;2.08;;;0.60;;
8439;SDS011;4257;48.568;7.818;2023-07-02T01:15:38;1.13;;;0.80;;
8439;SDS011;4257;48.568;7.818;2023-07-02T01:18:05;1.48;;;0.98;;
8439;SDS011;4257;48.568;7.818;2023-07-02T01:20:33;1.35;;;0.50;;
8439;SDS011;4257;48.568;7.818;2023-07-02T01:23:01;2.05;;;0.50;;
8439;SDS011;4257;48.568;7.818;2023-07-02T01:25:28;0.57;;;0.50;;
8439;SDS011;4257;48.568;7.818;2023-07-02T01:27:54;0.88;;;0.60;;
8439;SDS011;4257;48.568;7.818;2023-07-02T01:30:24;1.25;;;0.80;;
8439;SDS011;4257;48.568;7.818;2023-07-02T01:32:51;1.45;;;0.75;;
8439;SDS011;4257;48.568;7.818;2023-07-02T01:35:17;3.03;;;0.63;;
8439;SDS011;4257;48.568;7.818;2023-07-02T01:37:45;0.40;;;0.32;;
8439;SDS011;4257;48.568;7.818;2023-07-02T01:40:11;4.80;;;1.42;;
8439;SDS011;4257;48.568;7.818;2023-07-02T01:42:38;1.27;;;0.73;;
8439;SDS011;4257;48.568;7.818;2023-07-02T01:45:04;0.70;;;0.63;;
8439;SDS011;4257;48.568;7.818;2023-07-02T01:47:32;0.55;;;0.40;;
8439;SDS011;4257;48.568;7.818;2023-07-02T01:49:59;1.33;;;0.80;;
8439;SDS011;4257;48.568;7.818;2023-07-02T01:52:25;1.55;;;1.00;;
8439;SDS011;4257;48.568;7.818;2023-07-02T01:54:54;1.15;;;0.73;;
8439;SDS011;4257;48.568;7.818;2023-07-02T01:57:20;0.60;;;0.40;;
8439;SDS011;4257;48.568;7.818;2023-07-02T01:59:47;1.67;;;0.45;;
8439;SDS011;4257;48.568;7.818;2023-07-02T02:02:13;1.27;;;0.52;;
8439;SDS011;4257;48.568;7.818;2023-07-02T02:04:40;1.83;;;0.80;;
8439;SDS011;4257;48.568;7.818;2023-07-02T02:07:06;1.95;;;1.15;;
8439;SDS011;4257;48.568;7.818;2023-07-02T02:09:32;0.68;;;0.60;;
8439;SDS011;4257;48.568;7.818;2023-07-02T02:12:00;1.83;;;0.80;;
8439;SDS011;4257;48.568;7.818;2023-07-02T02:14:27;1.20;;;0.60;;
8439;SDS011;4257;48.568;7.818;2023-07-02T02:16:53;0.55;;;0.52;;
8439;SDS011;4257;48.568;7.818;2023-07-02T02:19:19;0.80;;;0.55;;
8439;SDS011;4257;48.568;7.818;2023-07-02T02:21:46;1.25;;;0.50;;
8439;SDS011;4257;48.568;7.818;2023-07-02T02:24:12;1.48;;;0.60;;
8439;SDS011;4257;48.568;7.818;2023-07-02T02:26:39;1.50;;;0.63;;
8439;SDS011;4257;48.568;7.818;2023-07-02T02:29:07;1.33;;;0.63;;
8439;SDS011;4257;48.568;7.818;2023-07-02T02:31:34;0.90;;;0.75;;
8439;SDS011;4257;48.568;7.818;2023-07-02T02:34:01;0.60;;;0.60;;
8439;SDS011;4257;48.568;7.818;2023-07-02T02:36:27;1.00;;;0.50;;
8439;SDS011;4257;48.568;7.818;2023-07-02T02:38:53;2.60;;;1.13;;
8439;SDS011;4257;48.568;7.818;2023-07-02T02:41:20;1.58;;;0.82;;
8439;SDS011;4257;48.568;7.818;2023-07-02T02:43:47;0.65;;;0.50;;
8439;SDS011;4257;48.568;7.818;2023-07-02T02:46:19;2.67;;;0.88;;
8439;SDS011;4257;48.568;7.818;2023-07-02T02:48:46;0.80;;;0.60;;
8439;SDS011;4257;48.568;7.818;2023-07-02T02:51:12;1.10;;;0.60;;
8439;SDS011;4257;48.568;7.818;2023-07-02T02:53:38;3.88;;;1.02;;
8439;SDS011;4257;48.568;7.818;2023-07-02T02:56:05;0.98;;;0.90;;
8439;SDS011;4257;48.568;7.818;2023-07-02T02:58:32;0.73;;;0.43;;
8439;SDS011;4257;48.568;7.818;2023-07-02T03:00:58;3.22;;;0.65;;
8439;SDS011;4257;48.568;7.818;2023-07-02T03:03:26;1.25;;;0.70;;
8439;SDS011;4257;48.568;7.818;2023-07-02T03:05:52;1.23;;;0.80;;
8439;SDS011;4257;48.568;7.818;2023-07-02T03:08:19;1.35;;;0.70;;
8439;SDS011;4257;48.568;7.818;2023-07-02T03:10:45;5.07;;;1.42;;
8439;SDS011;4257;48.568;7.818;2023-07-02T03:13:12;1.70;;;0.95;;
8439;SDS011;4257;48.568;7.818;2023-07-02T03:15:38;0.70;;;0.50;;
8439;SDS011;4257;48.568;7.818;2023-07-02T03:18:04;1.13;;;0.90;;
8439;SDS011;4257;48.568;7.818;2023-07-02T03:20:33;1.70;;;0.95;;
8439;SDS011;4257;48.568;7.818;2023-07-02T03:22:59;1.67;;;0.77;;
8439;SDS011;4257;48.568;7.818;2023-07-02T03:25:26;1.05;;;0.93;;
8439;SDS011;4257;48.568;7.818;2023-07-02T03:27:52;1.23;;;0.90;;
8439;SDS011;4257;48.568;7.818;2023-07-02T03:30:19;1.90;;;0.80;;
8439;SDS011;4257;48.568;7.818;2023-07-02T03:32:45;0.88;;;0.70;;
8439;SDS011;4257;48.568;7.818;2023-07-02T03:35:12;3.25;;;0.52;;
8439;SDS011;4257;48.568;7.818;2023-07-02T03:37:39;2.53;;;0.70;;
8439;SDS011;4257;48.568;7.818;2023-07-02T03:40:08;1.23;;;0.85;;
8439;SDS011;4257;48.568;7.818;2023-07-02T03:42:35;1.65;;;0.93;;
8439;SDS011;4257;48.568;7.818;2023-07-02T03:45:01;3.17;;;1.15;;
8439;SDS011;4257;48.568;7.818;2023-07-02T03:47:30;1.30;;;0.80;;
8439;SDS011;4257;48.568;7.818;2023-07-02T03:49:56;2.00;;;0.93;;
8439;SDS011;4257;48.568;7.818;2023-07-02T03:52:22;0.70;;;0.70;;
8439;SDS011;4257;48.568;7.818;2023-07-02T03:54:50;0.75;;;0.70;;
8439;SDS011;4257;48.568;7.818;2023-07-02T03:57:17;0.85;;;0.70;;
8439;SDS011;4257;48.568;7.818;2023-07-02T03:59:43;1.40;;;0.95;;
8439;SDS011;4257;48.568;7.818;2023-07-02T04:02:09;1.60;;;0.90;;
8439;SDS011;4257;48.568;7.818;2023-07-02T04:04:36;1.65;;;0.77;;
8439;SDS011;4257;48.568;7.818;2023-07-02T04:07:02;2.03;;;1.00;;
8439;SDS011;4257;48.568;7.818;2023-07-02T04:09:29;2.45;;;1.20;;
8439;SDS011;4257;48.568;7.818;2023-07-02T04:11:59;5.40;;;2.80;;
8439;SDS011;4257;48.568;7.818;2023-07-02T04:14:25;3.65;;;0.93;;
8439;SDS011;4257;48.568;7.818;2023-07-02T04:16:52;1.70;;;1.13;;
8439;SDS011;4257;48.568;7.818;2023-07-02T04:19:18;1.15;;;0.70;;
8439;SDS011;4257;48.568;7.818;2023-07-02T04:21:47;1.27;;;1.00;;
8439;SDS011;4257;48.568;7.818;2023-07-02T04:24:14;0.93;;;0.65;;
8439;SDS011;4257;48.568;7.818;2023-07-02T04:26:42;2.63;;;1.00;;
8439;SDS011;4257;48.568;7.818;2023-07-02T04:29:11;2.95;;;0.85;;
8439;SDS011;4257;48.568;7.818;2023-07-02T04:31:37;2.95;;;0.80;;
8439;SDS011;4257;48.568;7.818;2023-07-02T04:34:03;1.13;;;1.05;;
8439;SDS011;4257;48.568;7.818;2023-07-02T04:36:31;2.17;;;1.30;;
8439;SDS011;4257;48.568;7.818;2023-07-02T04:38:57;2.38;;;1.33;;
8439;SDS011;4257;48.568;7.818;2023-07-02T04:41:23;2.55;;;1.63;;
8439;SDS011;4257;48.568;7.818;2023-07-02T04:43:50;4.30;;;1.15;;
8439;SDS011;4257;48.568;7.818;2023-07-02T04:46:18;1.50;;;0.80;;
8439;SDS011;4257;48.568;7.818;2023-07-02T04:48:45;2.28;;;1.13;;
8439;SDS011;4257;48.568;7.818;2023-07-02T04:51:11;11.93;;;1.23;;
8439;SDS011;4257;48.568;7.818;2023-07-02T04:53:37;2.95;;;2.10;;
8439;SDS011;4257;48.568;7.818;2023-07-02T04:56:04;1.83;;;1.08;;
8439;SDS011;4257;48.568;7.818;2023-07-02T04:58:30;2.70;;;1.17;;
8439;SDS011;4257;48.568;7.818;2023-07-02T05:00:57;5.55;;;1.70;;
8439;SDS011;4257;48.568;7.818;2023-07-02T05:03:25;2.10;;;1.23;;
8439;SDS011;4257;48.568;7.818;2023-07-02T05:05:52;5.50;;;1.55;;
8439;SDS011;4257;48.568;7.818;2023-07-02T05:08:19;4.05;;;2.45;;
8439;SDS011;4257;48.568;7.818;2023-07-02T05:10:45;1.92;;;1.30;;
8439;SDS011;4257;48.568;7.818;2023-07-02T05:13:11;3.97;;;1.55;;
8439;SDS011;4257;48.568;7.818;2023-07-02T05:15:38;2.63;;;1.95;;
8439;SDS011;4257;48.568;7.818;2023-07-02T05:18:04;2.95;;;1.75;;
8439;SDS011;4257;48.568;7.818;2023-07-02T05:20:33;3.97;;;1.88;;
8439;SDS011;4257;48.568;7.818;2023-07-02T05:22:59;3.08;;;1.90;;
8439;SDS011;4257;48.568;7.818;2023-07-02T05:25:26;1.65;;;1.27;;
8439;SDS011;4257;48.568;7.818;2023-07-02T05:27:52;4.28;;;1.67;;
8439;SDS011;4257;48.568;7.818;2023-07-02T05:30:18;3.70;;;2.15;;
8439;SDS011;4257;48.568;7.818;2023-07-02T05:32:45;4.78;;;2.42;;
8439;SDS011;4257;48.568;7.818;2023-07-02T05:35:11;3.90;;;1.55;;
8439;SDS011;4257;48.568;7.818;2023-07-02T05:37:39;2.92;;;1.33;;
8439;SDS011;4257;48.568;7.818;2023-07-02T05:40:06;1.92;;;1.25;;
8439;SDS011;4257;48.568;7.818;2023-07-02T05:42:34;5.05;;;2.03;;
8439;SDS011;4257;48.568;7.818;2023-07-02T05:45:01;2.08;;;1.63;;
8439;SDS011;4257;48.568;7.818;2023-07-02T05:47:27;4.70;;;1.63;;
8439;SDS011;4257;48.568;7.818;2023-07-02T05:49:54;3.20;;;1.50;;
8439;SDS011;4257;48.568;7.818;2023-07-02T05:52:20;4.85;;;1.52;;
8439;SDS011;4257;48.568;7.818;2023-07-02T05:54:49;4.03;;;2.38;;
8439;SDS011;4257;48.568;7.818;2023-07-02T05:57:15;6.45;;;1.65;;
8439;SDS011;4257;48.568;7.818;2023-07-02T05:59:41;5.18;;;1.77;;
8439;SDS011;4257;48.568;7.818;2023-07-02T06:02:08;3.85;;;1.83;;
8439;SDS011;4257;48.568;7.818;2023-07-02T06:04:35;3.75;;;1.85;;
8439;SDS011;4257;48.568;7.818;2023-07-02T06:07:01;5.93;;;2.78;;
8439;SDS011;4257;48.568;7.818;2023-07-02T06:09:28;9.35;;;2.22;;
8439;SDS011;4257;48.568;7.818;2023-07-02T06:11:55;6.50;;;2.72;;
8439;SDS011;4257;48.568;7.818;2023-07-02T06:14:22;5.47;;;2.83;;
8439;SDS011;4257;48.568;7.818;2023-07-02T06:16:50;6.07;;;2.50;;
8439;SDS011;4257;48.568;7.818;2023-07-02T06:19:17;5.57;;;2.28;;
8439;SDS011;4257;48.568;7.818;2023-07-02T06:21:43;4.65;;;2.05;;
8439;SDS011;4257;48.568;7.818;2023-07-02T06:24:10;4.15;;;2.35;;
8439;SDS011;4257;48.568;7.818;2023-07-02T06:26:36;3.80;;;2.72;;
8439;SDS011;4257;48.568;7.818;2023-07-02T06:29:04;6.35;;;2.75;;
8439;SDS011;4257;48.568;7.818;2023-07-02T06:31:30;3.17;;;2.13;;
8439;SDS011;4257;48.568;7.818;2023-07-02T06:33:57;10.15;;;3.13;;
8439;SDS011;4257;48.568;7.818;2023-07-02T06:36:23;9.23;;;2.80;;
8439;SDS011;4257;48.568;7.818;2023-07-02T06:38:50;9.90;;;3.35;;
8439;SDS011;4257;48.568;7.818;2023-07-02T06:41:16;5.22;;;3.45;;
8439;SDS011;4257;48.568;7.818;2023-07-02T06:43:42;7.55;;;3.15;;
8439;SDS011;4257;48.568;7.818;2023-07-02T06:46:11;6.88;;;3.33;;
8439;SDS011;4257;48.568;7.818;2023-07-02T06:48:37;4.25;;;2.83;;
8439;SDS011;4257;48.568;7.818;2023-07-02T06:51:04;6.25;;;2.28;;
8439;SDS011;4257;48.568;7.818;2023-07-02T06:53:30;6.88;;;3.15;;
8439;SDS011;4257;48.568;7.818;2023-07-02T06:55:56;10.40;;;3.40;;
8439;SDS011;4257;48.568;7.818;2023-07-02T06:58:23;5.75;;;2.60;;
8439;SDS011;4257;48.568;7.818;2023-07-02T07:00:49;6.68;;;3.13;;
8439;SDS011;4257;48.568;7.818;2023-07-02T07:03:17;7.68;;;3.47;;
8439;SDS011;4257;48.568;7.818;2023-07-02T07:05:43;6.72;;;3.00;;
8439;SDS011;4257;48.568;7.818;2023-07-02T07:08:10;8.23;;;3.38;;
8439;SDS011;4257;48.568;7.818;2023-07-02T07:10:36;8.30;;;3.38;;
8439;SDS011;4257;48.568;7.818;2023-07-02T07:13:03;4.95;;;2.88;;
8439;SDS011;4257;48.568;7.818;2023-07-02T07:15:29;7.95;;;3.92;;
8439;SDS011;4257;48.568;7.818;2023-07-02T07:17:58;5.38;;;2.58;;
8439;SDS011;4257;48.568;7.818;2023-07-02T07:20:26;9.00;;;3.75;;
8439;SDS011;4257;48.568;7.818;2023-07-02T07:22:52;9.60;;;3.75;;
8439;SDS011;4257;48.568;7.818;2023-07-02T07:25:18;8.95;;;2.80;;
8439;SDS011;4257;48.568;7.818;2023-07-02T07:27:46;6.20;;;3.58;;
8439;SDS011;4257;48.568;7.818;2023-07-02T07:30:13;11.20;;;3.53;;
8439;SDS011;4257;48.568;7.818;2023-07-02T07:32:40;14.15;;;3.17;;
8439;SDS011;4257;48.568;7.818;2023-07-02T07:35:07;9.02;;;4.75;;
8439;SDS011;4257;48.568;7.818;2023-07-02T07:37:35;6.63;;;3.60;;
8439;SDS011;4257;48.568;7.818;2023-07-02T07:40:02;6.03;;;3.30;;
8439;SDS011;4257;48.568;7.818;2023-07-02T07:42:31;8.95;;;3.95;;
8439;SDS011;4257;48.568;7.818;2023-07-02T07:44:57;9.60;;;5.10;;
8439;SDS011;4257;48.568;7.818;2023-07-02T07:47:23;7.88;;;3.50;;
8439;SDS011;4257;48.568;7.818;2023-07-02T07:49:50;6.88;;;3.20;;
8439;SDS011;4257;48.568;7.818;2023-07-02T07:52:16;6.85;;;2.80;;
8439;SDS011;4257;48.568;7.818;2023-07-02T07:54:44;6.35;;;3.33;;
8439;SDS011;4257;48.568;7.818;2023-07-02T07:57:10;8.20;;;3.78;;
8439;SDS011;4257;48.568;7.818;2023-07-02T07:59:37;8.73;;;3.40;;
8439;SDS011;4257;48.568;7.818;2023-07-02T08:02:04;5.25;;;3.20;;
8439;SDS011;4257;48.568;7.818;2023-07-02T08:04:30;6.18;;;3.28;;
8439;SDS011;4257;48.568;7.818;2023-07-02T08:06:57;6.32;;;2.75;;
8439;SDS011;4257;48.568;7.818;2023-07-02T08:09:23;7.50;;;2.75;;
8439;SDS011;4257;48.568;7.818;2023-07-02T08:11:51;5.70;;;3.20;;
8439;SDS011;4257;48.568;7.818;2023-07-02T08:14:18;12.35;;;3.67;;
8439;SDS011;4257;48.568;7.818;2023-07-02T08:16:44;7.00;;;3.00;;
8439;SDS011;4257;48.568;7.818;2023-07-02T08:19:11;5.82;;;3.58;;
8439;SDS011;4257;48.568;7.818;2023-07-02T08:21:37;7.13;;;3.25;;
8439;SDS011;4257;48.568;7.818;2023-07-02T08:24:03;4.20;;;2.55;;
8439;SDS011;4257;48.568;7.818;2023-07-02T08:26:31;6.45;;;3.40;;
8439;SDS011;4257;48.568;7.818;2023-07-02T08:28:59;8.82;;;4.32;;
8439;SDS011;4257;48.568;7.818;2023-07-02T08:31:25;5.75;;;3.75;;
8439;SDS011;4257;48.568;7.818;2023-07-02T08:33:52;11.30;;;4.55;;
8439;SDS011;4257;48.568;7.818;2023-07-02T08:36:18;6.63;;;3.67;;
8439;SDS011;4257;48.568;7.818;2023-07-02T08:38:45;6.57;;;3.90;;
8439;SDS011;4257;48.568;7.818;2023-07-02T08:41:11;10.52;;;4.35;;
8439;SDS011;4257;48.568;7.818;2023-07-02T08:43:38;10.02;;;4.22;;
8439;SDS011;4257;48.568;7.818;2023-07-02T08:46:06;8.88;;;3.85;;
8439;SDS011;4257;48.568;7.818;2023-07-02T08:48:33;7.82;;;3.20;;
8439;SDS011;4257;48.568;7.818;2023-07-02T08:51:00;7.20;;;3.67;;
8439;SDS011;4257;48.568;7.818;2023-07-02T08:53:28;8.45;;;3.70;;
8439;SDS011;4257;48.568;7.818;2023-07-02T08:55:59;4.93;;;3.13;;
8439;SDS011;4257;48.568;7.818;2023-07-02T08:58:25;5.78;;;3.10;;
8439;SDS011;4257;48.568;7.818;2023-07-02T09:01:04;6.05;;;3.55;;
8439;SDS011;4257;48.568;7.818;2023-07-02T09:03:33;6.18;;;4.30;;
8439;SDS011;4257;48.568;7.818;2023-07-02T09:06:00;10.65;;;4.25;;
8439;SDS011;4257;48.568;7.818;2023-07-02T09:08:26;8.32;;;4.30;;
8439;SDS011;4257;48.568;7.818;2023-07-02T09:10:53;9.38;;;4.35;;
8439;SDS011;4257;48.568;7.818;2023-07-02T09:13:20;5.53;;;3.15;;
8439;SDS011;4257;48.568;7.818;2023-07-02T09:15:47;6.47;;;3.20;;
8439;SDS011;4257;48.568;7.818;2023-07-02T09:18:18;5.82;;;3.40;;
8439;SDS011;4257;48.568;7.818;2023-07-02T09:20:45;7.60;;;3.83;;
8439;SDS011;4257;48.568;7.818;2023-07-02T09:23:12;9.02;;;3.45;;
8439;SDS011;4257;48.568;7.818;2023-07-02T09:25:42;6.13;;;3.13;;
8439;SDS011;4257;48.568;7.818;2023-07-02T09:28:17;7.40;;;4.35;;
8439;SDS011;4257;48.568;7.818;2023-07-02T09:30:51;10.88;;;3.95;;
8439;SDS011;4257;48.568;7.818;2023-07-02T09:33:19;7.20;;;4.00;;
8439;SDS011;4257;48.568;7.818;2023-07-02T09:35:46;8.98;;;3.80;;
8439;SDS011;4257;48.568;7.818;2023-07-02T09:38:12;9.18;;;3.50;;
8439;SDS011;4257;48.568;7.818;2023-07-02T09:40:44;8.55;;;4.25;;
8439;SDS011;4257;48.568;7.818;2023-07-02T09:43:11;8.48;;;3.53;;
8439;SDS011;4257;48.568;7.818;2023-07-02T09:45:39;5.90;;;3.60;;
8439;SDS011;4257;48.568;7.818;2023-07-02T09:48:08;6.40;;;3.75;;
8439;SDS011;4257;48.568;7.818;2023-07-02T09:50:36;11.25;;;3.80;;
8439;SDS011;4257;48.568;7.818;2023-07-02T09:53:03;6.93;;;3.75;;
8439;SDS011;4257;48.568;7.818;2023-07-02T09:55:30;8.98;;;3.72;;
8439;SDS011;4257;48.568;7.818;2023-07-02T09:57:57;7.65;;;3.50;;
8439;SDS011;4257;48.568;7.818;2023-07-02T10:00:23;6.47;;;3.90;;
8439;SDS011;4257;48.568;7.818;2023-07-02T10:02:50;9.05;;;4.85;;
8439;SDS011;4257;48.568;7.818;2023-07-02T10:05:26;8.50;;;3.78;;
8439;SDS011;4257;48.568;7.818;2023-07-02T10:07:55;7.03;;;3.00;;
8439;SDS011;4257;48.568;7.818;2023-07-02T10:10:25;8.65;;;3.55;;
8439;SDS011;4257;48.568;7.818;2023-07-02T10:12:53;7.20;;;3.20;;
8439;SDS011;4257;48.568;7.818;2023-07-02T10:15:24;11.90;;;3.53;;
8439;SDS011;4257;48.568;7.818;2023-07-02T10:17:54;7.68;;;3.67;;
8439;SDS011;4257;48.568;7.818;2023-07-02T10:20:30;7.68;;;3.50;;
8439;SDS011;4257;48.568;7.818;2023-07-02T10:22:59;8.65;;;4.03;;
8439;SDS011;4257;48.568;7.818;2023-07-02T10:25:27;8.63;;;4.28;;
8439;SDS011;4257;48.568;7.818;2023-07-02T10:27:54;8.68;;;4.15;;
8439;SDS011;4257;48.568;7.818;2023-07-02T10:30:30;5.55;;;3.03;;
8439;SDS011;4257;48.568;7.818;2023-07-02T10:33:06;8.38;;;4.03;;
8439;SDS011;4257;48.568;7.818;2023-07-02T10:35:33;8.43;;;3.60;;
8439;SDS011;4257;48.568;7.818;2023-07-02T10:38:01;7.82;;;3.67;;
8439;SDS011;4257;48.568;7.818;2023-07-02T10:40:29;12.98;;;4.72;;
8439;SDS011;4257;48.568;7.818;2023-07-02T10:42:56;10.07;;;4.22;;
8439;SDS011;4257;48.568;7.818;2023-07-02T10:45:30;10.68;;;3.83;;
8439;SDS011;4257;48.568;7.818;2023-07-02T10:47:58;5.53;;;3.65;;
8439;SDS011;4257;48.568;7.818;2023-07-02T10:50:26;11.98;;;5.18;;
8439;SDS011;4257;48.568;7.818;2023-07-02T10:52:53;4.72;;;3.15;;
8439;SDS011;4257;48.568;7.818;2023-07-02T10:55:22;8.05;;;3.78;;
8439;SDS011;4257;48.568;7.818;2023-07-02T10:57:49;6.70;;;3.47;;
8439;SDS011;4257;48.568;7.818;2023-07-02T11:00:17;10.55;;;3.10;;
8439;SDS011;4257;48.568;7.818;2023-07-02T11:02:43;6.43;;;3.10;;
8439;SDS011;4257;48.568;7.818;2023-07-02T11:05:10;9.00;;;3.53;;
8439;SDS011;4257;48.568;7.818;2023-07-02T11:07:37;10.02;;;3.53;;
8439;SDS011;4257;48.568;7.818;2023-07-02T11:10:04;7.47;;;4.32;;
8439;SDS011;4257;48.568;7.818;2023-07-02T11:12:32;6.65;;;3.08;;
8439;SDS011;4257;48.568;7.818;2023-07-02T11:15:08;5.25;;;3.08;;
8439;SDS011;4257;48.568;7.818;2023-07-02T11:17:35;8.38;;;3.38;;
8439;SDS011;4257;48.568;7.818;2023-07-02T11:20:01;7.70;;;3.10;;
8439;SDS011;4257;48.568;7.818;2023-07-02T11:22:30;6.57;;;3.25;;
8439;SDS011;4257;48.568;7.818;2023-07-02T11:24:57;6.35;;;3.22;;
8439;SDS011;4257;48.568;7.818;2023-07-02T11:27:36;8.63;;;3.60;;
8439;SDS011;4257;48.568;7.818;2023-07-02T11:30:03;6.15;;;3.13;;
8439;SDS011;4257;48.568;7.818;2023-07-02T11:32:31;7.68;;;3.20;;
8439;SDS011;4257;48.568;7.818;2023-07-02T11:34:57;6.78;;;3.38;;
8439;SDS011;4257;48.568;7.818;2023-07-02T11:37:23;7.55;;;2.65;;
8439;SDS011;4257;48.568;7.818;2023-07-02T11:39:50;5.72;;;2.78;;
8439;SDS011;4257;48.568;7.818;2023-07-02T11:42:16;4.70;;;2.92;;
8439;SDS011;4257;48.568;7.818;2023-07-02T11:44:44;5.38;;;2.97;;
8439;SDS011;4257;48.568;7.818;2023-07-02T11:47:11;8.35;;;2.85;;
8439;SDS011;4257;48.568;7.818;2023-07-02T11:49:37;7.50;;;3.75;;
8439;SDS011;4257;48.568;7.818;2023-07-02T11:52:04;5.70;;;3.05;;
8439;SDS011;4257;48.568;7.818;2023-07-02T11:54:30;8.27;;;3.35;;
8439;SDS011;4257;48.568;7.818;2023-07-02T11:56:57;10.88;;;3.85;;
8439;SDS011;4257;48.568;7.818;2023-07-02T11:59:24;6.35;;;3.40;;
8439;SDS011;4257;48.568;7.818;2023-07-02T12:01:52;6.70;;;2.80;;
8439;SDS011;4257;48.568;7.818;2023-07-02T12:04:18;7.13;;;3.03;;
8439;SDS011;4257;48.568;7.818;2023-07-02T12:06:44;6.65;;;3.75;;
8439;SDS011;4257;48.568;7.818;2023-07-02T12:09:11;6.88;;;2.97;;
8439;SDS011;4257;48.568;7.818;2023-07-02T12:11:37;8.82;;;4.07;;
8439;SDS011;4257;48.568;7.818;2023-07-02T12:14:04;8.13;;;4.43;;
8439;SDS011;4257;48.568;7.818;2023-07-02T12:16:30;6.55;;;2.78;;
8439;SDS011;4257;48.568;7.818;2023-07-02T12:18:58;7.25;;;2.63;;
8439;SDS011;4257;48.568;7.818;2023-07-02T12:21:25;6.43;;;3.70;;
8439;SDS011;4257;48.568;7.818;2023-07-02T12:23:51;10.90;;;3.42;;
8439;SDS011;4257;48.568;7.818;2023-07-02T12:26:17;5.05;;;3.45;;
8439;SDS011;4257;48.568;7.818;2023-07-02T12:28:44;7.10;;;3.10;;
8439;SDS011;4257;48.568;7.818;2023-07-02T12:31:10;7.22;;;3.72;;
8439;SDS011;4257;48.568;7.818;2023-07-02T12:33:37;5.07;;;2.95;;
8439;SDS011;4257;48.568;7.818;2023-07-02T12:36:06;4.13;;;2.88;;
8439;SDS011;4257;48.568;7.818;2023-07-02T12:38:32;6.03;;;3.53;;
8439;SDS011;4257;48.568;7.818;2023-07-02T12:40:59;9.32;;;3.53;;
8439;SDS011;4257;48.568;7.818;2023-07-02T12:43:25;5.28;;;2.78;;
8439;SDS011;4257;48.568;7.818;2023-07-02T12:45:51;7.22;;;3.10;;
8439;SDS011;4257;48.568;7.818;2023-07-02T12:48:18;7.03;;;4.20;;
8439;SDS011;4257;48.568;7.818;2023-07-02T12:50:52;8.82;;;3.00;;
8439;SDS011;4257;48.568;7.818;2023-07-02T12:53:21;6.57;;;3.65;;
8439;SDS011;4257;48.568;7.818;2023-07-02T12:55:47;7.18;;;3.40;;
8439;SDS011;4257;48.568;7.818;2023-07-02T12:58:14;12.48;;;3.50;;
8439;SDS011;4257;48.568;7.818;2023-07-02T13:00:40;6.30;;;3.35;;
8439;SDS011;4257;48.568;7.818;2023-07-02T13:03:10;6.70;;;2.88;;
8439;SDS011;4257;48.568;7.818;2023-07-02T13:05:37;5.25;;;2.55;;
8439;SDS011;4257;48.568;7.818;2023-07-02T13:08:03;11.20;;;4.20;;
8439;SDS011;4257;48.568;7.818;2023-07-02T13:10:32;4.47;;;3.13;;
8439;SDS011;4257;48.568;7.818;2023-07-02T13:12:59;6.68;;;3.13;;
8439;SDS011;4257;48.568;7.818;2023-07-02T13:15:25;8.27;;;3.15;;
8439;SDS011;4257;48.568;7.818;2023-07-02T13:17:52;4.95;;;3.10;;
8439;SDS011;4257;48.568;7.818;2023-07-02T13:20:18;6.85;;;3.15;;
8439;SDS011;4257;48.568;7.818;2023-07-02T13:22:45;8.65;;;3.83;;
8439;SDS011;4257;48.568;7.818;2023-07-02T13:25:12;7.07;;;2.88;;
8439;SDS011;4257;48.568;7.818;2023-07-02T13:27:39;6.68;;;3.20;;
8439;SDS011;4257;48.568;7.818;2023-07-02T13:30:06;7.00;;;3.60;;
8439;SDS011;4257;48.568;7.818;2023-07-02T13:32:33;6.60;;;3.10;;
8439;SDS011;4257;48.568;7.818;2023-07-02T13:35:00;4.63;;;3.10;;
8439;SDS011;4257;48.568;7.818;2023-07-02T13:37:26;8.63;;;3.83;;
8439;SDS011;4257;48.568;7.818;2023-07-02T13:39:53;4.95;;;3.03;;
8439;SDS011;4257;48.568;7.818;2023-07-02T13:42:19;8.90;;;4.05;;
8439;SDS011;4257;48.568;7.818;2023-07-02T13:44:47;7.22;;;3.80;;
8439;SDS011;4257;48.568;7.818;2023-07-02T13:47:13;7.05;;;2.85;;
8439;SDS011;4257;48.568;7.818;2023-07-02T13:49:40;7.15;;;3.08;;
8439;SDS011;4257;48.568;7.818;2023-07-02T13:52:07;6.68;;;2.85;;
8439;SDS011;4257;48.568;7.818;2023-07-02T13:54:34;12.48;;;4.20;;
8439;SDS011;4257;48.568;7.818;2023-07-02T13:57:00;7.25;;;3.30;;
8439;SDS011;4257;48.568;7.818;2023-07-02T13:59:28;6.78;;;4.15;;
8439;SDS011;4257;48.568;7.818;2023-07-02T14:01:54;5.32;;;2.75;;
8439;SDS011;4257;48.568;7.818;2023-07-02T14:04:21;7.00;;;3.00;;
8439;SDS011;4257;48.568;7.818;2023-07-02T14:06:47;4.95;;;2.60;;
8439;SDS011;4257;48.568;7.818;2023-07-02T14:09:13;8.35;;;2.80;;
8439;SDS011;4257;48.568;7.818;2023-07-02T14:11:40;5.32;;;3.50;;
8439;SDS011;4257;48.568;7.818;2023-07-02T14:14:08;6.63;;;3.75;;
8439;SDS011;4257;48.568;7.818;2023-07-02T14:16:36;6.25;;;3.35;;
8439;SDS011;4257;48.568;7.818;2023-07-02T14:19:02;5.85;;;2.65;;
8439;SDS011;4257;48.568;7.818;2023-07-02T14:21:29;7.57;;;3.42;;
8439;SDS011;4257;48.568;7.818;2023-07-02T14:23:55;7.53;;;4.25;;
8439;SDS011;4257;48.568;7.818;2023-07-02T14:26:23;5.65;;;3.13;;
8439;SDS011;4257;48.568;7.818;2023-07-02T14:28:49;9.07;;;3.58;;
8439;SDS011;4257;48.568;7.818;2023-07-02T14:31:15;11.57;;;3.20;;
8439;SDS011;4257;48.568;7.818;2023-07-02T14:33:43;6.15;;;3.28;;
8439;SDS011;4257;48.568;7.818;2023-07-02T14:36:10;5.15;;;2.85;;
8439;SDS011;4257;48.568;7.818;2023-07-02T14:38:36;8.55;;;3.63;;
8439;SDS011;4257;48.568;7.818;2023-07-02T14:41:03;7.35;;;3.40;;
8439;SDS011;4257;48.568;7.818;2023-07-02T14:43:30;7.85;;;3.10;;
8439;SDS011;4257;48.568;7.818;2023-07-02T14:45:57;6.82;;;3.28;;
8439;SDS011;4257;48.568;7.818;2023-07-02T14:48:25;5.15;;;2.90;;
8439;SDS011;4257;48.568;7.818;2023-07-02T14:50:53;6.72;;;3.85;;
8439;SDS011;4257;48.568;7.818;2023-07-02T14:53:20;5.78;;;3.38;;
8439;SDS011;4257;48.568;7.818;2023-07-02T14:55:47;6.90;;;2.83;;
8439;SDS011;4257;48.568;7.818;2023-07-02T14:58:14;9.32;;;3.95;;
8439;SDS011;4257;48.568;7.818;2023-07-02T15:00:45;6.70;;;3.60;;
8439;SDS011;4257;48.568;7.818;2023-07-02T15:03:12;5.10;;;3.17;;
8439;SDS011;4257;48.568;7.818;2023-07-02T15:05:39;4.88;;;2.95;;
8439;SDS011;4257;48.568;7.818;2023-07-02T15:08:07;7.10;;;3.15;;
8439;SDS011;4257;48.568;7.818;2023-07-02T15:10:34;7.25;;;3.08;;
8439;SDS011;4257;48.568;7.818;2023-07-02T15:13:03;4.72;;;2.88;;
8439;SDS011;4257;48.568;7.818;2023-07-02T15:15:29;6.20;;;3.25;;